createdAt,value
2018-08-11T00:00:48.574Z,19.12
2018-08-11T00:01:57.217Z,19.05
2018-08-11T00:03:05.868Z,19.05
2018-08-11T00:04:14.517Z,18.97
2018-08-11T00:05:23.162Z,19.04
2018-08-11T00:06:31.804Z,18.94
2018-08-11T00:07:40.455Z,18.96
2018-08-11T00:08:49.104Z,18.91
2018-08-11T00:09:57.753Z,18.91
2018-08-11T00:11:06.402Z,18.91
2018-08-11T00:12:15.047Z,18.88
2018-08-11T00:13:23.693Z,18.88
2018-08-11T00:14:32.340Z,18.89
2018-08-11T00:15:40.983Z,18.89
2018-08-11T00:16:49.631Z,18.88
2018-08-11T00:17:58.277Z,18.86
2018-08-11T00:19:06.925Z,18.82
2018-08-11T00:20:15.575Z,18.91
2018-08-11T00:21:24.215Z,18.94
2018-08-11T00:22:32.864Z,18.98
2018-08-11T00:23:41.508Z,18.97
2018-08-11T00:24:50.423Z,19.04
2018-08-11T00:25:59.068Z,18.96
2018-08-11T00:27:07.974Z,18.89
2018-08-11T00:28:16.621Z,18.98
2018-08-11T00:29:25.272Z,18.97
2018-08-11T00:30:33.911Z,18.98
2018-08-11T00:31:42.560Z,18.97
2018-08-11T00:32:51.206Z,18.98
2018-08-11T00:33:59.854Z,18.98
2018-08-11T00:35:08.497Z,18.97
2018-08-11T00:36:17.153Z,18.97
2018-08-11T00:37:26.096Z,18.89
2018-08-11T00:38:35.000Z,18.82
2018-08-11T00:39:43.651Z,18.85
2018-08-11T00:40:52.558Z,18.91
2018-08-11T00:42:01.211Z,18.98
2018-08-11T00:43:09.846Z,18.92
2018-08-11T00:44:18.501Z,18.85
2018-08-11T00:45:27.140Z,18.82
2018-08-11T00:46:35.795Z,18.78
2018-08-11T00:47:44.431Z,18.76
2018-08-11T00:48:53.084Z,18.68
2018-08-11T00:50:01.728Z,18.71
2018-08-11T00:51:10.378Z,18.7
2018-08-11T00:52:19.014Z,18.73
2018-08-11T00:53:27.664Z,18.71
2018-08-11T00:54:36.314Z,18.66
2018-08-11T00:55:44.960Z,18.66
2018-08-11T00:56:53.871Z,18.67
2018-08-11T00:58:02.509Z,18.66
2018-08-11T00:59:11.158Z,18.66
2018-08-11T01:00:20.059Z,18.58
2018-08-11T01:01:28.712Z,18.63
2018-08-11T01:02:37.611Z,18.63
2018-08-11T01:03:46.266Z,18.58
2018-08-11T01:04:54.902Z,18.63
2018-08-11T01:06:03.556Z,18.55
2018-08-11T01:07:12.195Z,18.39
2018-08-11T01:08:20.844Z,18.45
2018-08-11T01:09:29.751Z,18.37
2018-08-11T01:10:38.404Z,18.33
2018-08-11T01:11:47.052Z,18.3
2018-08-11T01:12:55.691Z,18.27
2018-08-11T01:14:04.598Z,18.33
2018-08-11T01:15:13.508Z,18.21
2018-08-11T01:16:22.170Z,18.27
2018-08-11T01:17:30.808Z,18.12
2018-08-11T01:18:39.458Z,18.11
2018-08-11T01:19:48.097Z,18.11
2018-08-11T01:20:56.754Z,18.11
2018-08-11T01:22:05.666Z,17.91
2018-08-11T01:23:14.308Z,17.87
2018-08-11T01:24:22.945Z,17.8
2018-08-11T01:25:31.599Z,17.69
2018-08-11T01:26:40.242Z,17.53
2018-08-11T01:27:48.894Z,17.44
2018-08-11T01:28:58.065Z,17.37
2018-08-11T01:30:06.714Z,17.22
2018-08-11T01:31:15.365Z,17.12
2018-08-11T01:32:24.012Z,16.99
2018-08-11T01:33:32.662Z,16.91
2018-08-11T01:34:41.294Z,16.76
2018-08-11T01:35:49.943Z,16.69
2018-08-11T01:36:58.582Z,16.66
2018-08-11T01:38:07.236Z,16.73
2018-08-11T01:39:15.879Z,16.64
2018-08-11T01:40:24.520Z,16.57
2018-08-11T01:41:33.170Z,16.55
2018-08-11T01:42:41.804Z,16.37
2018-08-11T01:43:50.453Z,16.4
2018-08-11T01:44:59.097Z,16.36
2018-08-11T01:46:08.005Z,16.25
2018-08-11T01:47:16.641Z,16.25
2018-08-11T01:48:25.286Z,16.25
2018-08-11T01:49:34.205Z,16.18
2018-08-11T01:50:43.114Z,16.13
2018-08-11T01:51:51.761Z,16.06
2018-08-11T01:53:00.401Z,15.9
2018-08-11T01:54:09.325Z,15.84
2018-08-11T01:55:17.965Z,15.85
2018-08-11T01:56:26.618Z,15.81
2018-08-11T01:57:35.257Z,15.72
2018-08-11T01:58:43.904Z,15.72
2018-08-11T01:59:52.546Z,15.63
2018-08-11T02:01:01.198Z,15.67
2018-08-11T02:02:09.834Z,15.66
2018-08-11T02:03:18.480Z,15.6
2018-08-11T02:04:27.122Z,15.52
2018-08-11T02:05:35.774Z,15.5
2018-08-11T02:06:44.416Z,15.48
2018-08-11T02:07:53.055Z,15.51
2018-08-11T02:09:01.696Z,15.47
2018-08-11T02:10:10.340Z,15.44
2018-08-11T02:11:19.076Z,15.48
2018-08-11T02:12:27.632Z,15.37
2018-08-11T02:13:36.281Z,15.47
2018-08-11T02:14:45.178Z,15.33
2018-08-11T02:15:53.833Z,15.3
2018-08-11T02:17:02.471Z,15.25
2018-08-11T02:18:11.118Z,15.23
2018-08-11T02:19:19.755Z,15.27
2018-08-11T02:20:28.409Z,15.29
2018-08-11T02:21:37.051Z,15.19
2018-08-11T02:22:45.697Z,15.18
2018-08-11T02:23:54.601Z,15.12
2018-08-11T02:25:03.253Z,15.1
2018-08-11T02:26:12.166Z,15.15
2018-08-11T02:27:20.805Z,15.14
2018-08-11T02:28:29.450Z,15.08
2018-08-11T02:29:38.084Z,15.15
2018-08-11T02:30:46.737Z,15.12
2018-08-11T02:31:55.375Z,15.11
2018-08-11T02:33:04.036Z,15.04
2018-08-11T02:34:12.702Z,14.92
2018-08-11T02:35:21.860Z,14.93
2018-08-11T02:36:30.505Z,14.94
2018-08-11T02:37:39.163Z,14.92
2018-08-11T02:38:47.805Z,14.9
2018-08-11T02:39:56.452Z,14.86
2018-08-11T02:41:05.367Z,14.9
2018-08-11T02:42:14.278Z,14.79
2018-08-11T02:43:22.921Z,14.77
2018-08-11T02:44:31.577Z,14.77
2018-08-11T02:45:40.221Z,14.68
2018-08-11T02:46:49.127Z,14.67
2018-08-11T02:47:57.775Z,14.56
2018-08-11T02:49:06.420Z,14.53
2018-08-11T02:50:15.328Z,14.51
2018-08-11T02:51:23.970Z,14.44
2018-08-11T02:52:32.626Z,14.38
2018-08-11T02:53:41.268Z,14.45
2018-08-11T02:54:50.177Z,14.33
2018-08-11T02:55:59.091Z,14.36
2018-08-11T02:57:07.999Z,14.22
2018-08-11T02:58:16.644Z,14.2
2018-08-11T02:59:25.293Z,14.2
2018-08-11T03:00:34.218Z,14.18
2018-08-11T03:01:42.870Z,14.04
2018-08-11T03:02:52.051Z,14.07
2018-08-11T03:04:00.958Z,14.01
2018-08-11T03:05:09.619Z,14.12
2018-08-11T03:06:18.524Z,14.08
2018-08-11T03:07:27.166Z,14.04
2018-08-11T03:08:35.816Z,14.18
2018-08-11T03:09:44.465Z,14.23
2018-08-11T03:10:53.365Z,14.22
2018-08-11T03:12:02.010Z,14.16
2018-08-11T03:13:10.918Z,14.22
2018-08-11T03:14:19.841Z,14.3
2018-08-11T03:15:28.476Z,14.31
2018-08-11T03:16:37.398Z,14.41
2018-08-11T03:17:46.565Z,14.36
2018-08-11T03:18:55.474Z,14.37
2018-08-11T03:20:04.123Z,14.3
2018-08-11T03:21:12.765Z,14.31
2018-08-11T03:22:21.408Z,14.3
2018-08-11T03:23:30.576Z,14.22
2018-08-11T03:24:39.226Z,14.23
2018-08-11T03:25:47.871Z,14.25
2018-08-11T03:26:56.785Z,14.22
2018-08-11T03:28:05.424Z,14.18
2018-08-11T03:29:14.072Z,14.23
2018-08-11T03:30:22.988Z,14.08
2018-08-11T03:31:31.634Z,14.05
2018-08-11T03:32:40.272Z,13.98
2018-08-11T03:33:48.921Z,14
2018-08-11T03:34:57.562Z,13.95
2018-08-11T03:36:06.475Z,13.97
2018-08-11T03:37:15.376Z,13.89
2018-08-11T03:38:24.023Z,13.86
2018-08-11T03:39:32.668Z,13.82
2018-08-11T03:40:41.309Z,13.87
2018-08-11T03:41:49.958Z,13.83
2018-08-11T03:42:58.614Z,13.83
2018-08-11T03:44:07.237Z,13.76
2018-08-11T03:45:16.138Z,13.75
2018-08-11T03:46:24.784Z,13.68
2018-08-11T03:47:33.428Z,13.65
2018-08-11T03:48:42.075Z,13.65
2018-08-11T03:49:50.719Z,13.62
2018-08-11T03:50:59.365Z,13.65
2018-08-11T03:52:08.002Z,13.73
2018-08-11T03:53:16.647Z,13.71
2018-08-11T03:54:25.290Z,13.71
2018-08-11T03:55:33.940Z,13.6
2018-08-11T03:56:42.580Z,13.58
2018-08-11T03:57:51.224Z,13.57
2018-08-11T03:58:59.862Z,13.58
2018-08-11T04:00:08.502Z,13.62
2018-08-11T04:01:17.154Z,13.62
2018-08-11T04:02:26.054Z,13.58
2018-08-11T04:03:34.958Z,13.55
2018-08-11T04:04:43.599Z,13.58
2018-08-11T04:05:52.247Z,13.58
2018-08-11T04:07:00.890Z,13.58
2018-08-11T04:08:09.534Z,13.5
2018-08-11T04:09:18.171Z,13.55
2018-08-11T04:10:26.821Z,13.5
2018-08-11T04:11:35.462Z,13.57
2018-08-11T04:12:44.109Z,13.52
2018-08-11T04:13:53.009Z,13.55
2018-08-11T04:15:01.660Z,13.5
2018-08-11T04:16:10.298Z,13.5
2018-08-11T04:17:18.992Z,13.55
2018-08-11T04:18:27.900Z,13.54
2018-08-11T04:19:36.539Z,13.5
2018-08-11T04:20:45.182Z,13.52
2018-08-11T04:21:53.826Z,13.55
2018-08-11T04:23:02.474Z,13.47
2018-08-11T04:24:11.375Z,13.47
2018-08-11T04:25:20.018Z,13.47
2018-08-11T04:26:28.659Z,13.52
2018-08-11T04:27:37.310Z,13.55
2018-08-11T04:28:45.950Z,13.55
2018-08-11T04:29:54.596Z,13.57
2018-08-11T04:31:03.509Z,13.52
2018-08-11T04:32:12.155Z,13.61
2018-08-11T04:33:21.063Z,13.6
2018-08-11T04:34:29.976Z,13.64
2018-08-11T04:35:38.658Z,13.57
2018-08-11T04:36:47.248Z,13.58
2018-08-11T04:37:55.902Z,13.71
2018-08-11T04:39:04.803Z,13.68
2018-08-11T04:40:13.453Z,13.55
2018-08-11T04:41:22.352Z,13.71
2018-08-11T04:42:31.006Z,13.64
2018-08-11T04:43:39.643Z,13.75
2018-08-11T04:44:48.292Z,13.65
2018-08-11T04:45:56.924Z,13.67
2018-08-11T04:47:05.576Z,13.67
2018-08-11T04:48:14.222Z,13.64
2018-08-11T04:49:22.869Z,13.67
2018-08-11T04:50:31.503Z,13.75
2018-08-11T04:51:40.149Z,13.79
2018-08-11T04:52:48.800Z,13.82
2018-08-11T04:53:57.445Z,13.86
2018-08-11T04:55:06.091Z,13.83
2018-08-11T04:56:14.998Z,13.93
2018-08-11T04:57:23.646Z,13.97
2018-08-11T04:58:32.285Z,13.98
2018-08-11T04:59:40.936Z,14.05
2018-08-11T05:00:49.636Z,14.07
2018-08-11T05:01:58.480Z,14.11
2018-08-11T05:03:07.121Z,14.07
2018-08-11T05:04:15.774Z,14.18
2018-08-11T05:05:24.410Z,14.19
2018-08-11T05:06:33.056Z,14.2
2018-08-11T05:07:41.700Z,14.22
2018-08-11T05:08:50.618Z,14.26
2018-08-11T05:09:59.259Z,14.22
2018-08-11T05:11:07.906Z,14.28
2018-08-11T05:12:16.544Z,14.34
2018-08-11T05:13:25.176Z,14.23
2018-08-11T05:14:33.828Z,14.36
2018-08-11T05:15:42.465Z,14.43
2018-08-11T05:16:51.381Z,14.45
2018-08-11T05:18:00.016Z,14.43
2018-08-11T05:19:08.666Z,14.45
2018-08-11T05:20:17.304Z,14.48
2018-08-11T05:21:25.957Z,14.56
2018-08-11T05:22:34.600Z,14.48
2018-08-11T05:23:43.240Z,14.56
2018-08-11T05:24:51.884Z,14.66
2018-08-11T05:26:00.789Z,14.58
2018-08-11T05:27:09.427Z,14.66
2018-08-11T05:28:18.073Z,14.7
2018-08-11T05:29:26.721Z,14.62
2018-08-11T05:30:35.642Z,14.63
2018-08-11T05:31:44.287Z,14.61
2018-08-11T05:32:52.922Z,14.63
2018-08-11T05:34:01.568Z,14.66
2018-08-11T05:35:10.216Z,14.67
2018-08-11T05:36:18.851Z,14.74
2018-08-11T05:37:27.507Z,14.73
2018-08-11T05:38:36.147Z,14.68
2018-08-11T05:39:45.067Z,14.71
2018-08-11T05:40:53.967Z,14.74
2018-08-11T05:42:02.620Z,14.78
2018-08-11T05:43:11.264Z,14.79
2018-08-11T05:44:19.910Z,14.9
2018-08-11T05:45:29.063Z,14.89
2018-08-11T05:46:37.711Z,14.89
2018-08-11T05:47:46.628Z,14.94
2018-08-11T05:48:55.273Z,14.9
2018-08-11T05:50:03.919Z,15.02
2018-08-11T05:51:12.555Z,14.99
2018-08-11T05:52:21.202Z,15.02
2018-08-11T05:53:29.843Z,15.05
2018-08-11T05:54:38.762Z,15.17
2018-08-11T05:55:47.391Z,15.05
2018-08-11T05:56:56.049Z,15.17
2018-08-11T05:58:04.680Z,15.17
2018-08-11T05:59:13.603Z,15.1
2018-08-11T06:00:22.239Z,15.15
2018-08-11T06:01:31.151Z,15.14
2018-08-11T06:02:39.796Z,15.18
2018-08-11T06:03:48.449Z,15.14
2018-08-11T06:04:57.087Z,15.22
2018-08-11T06:06:05.988Z,15.19
2018-08-11T06:07:14.896Z,15.11
2018-08-11T06:08:23.538Z,15.18
2018-08-11T06:09:32.191Z,15.12
2018-08-11T06:10:40.832Z,15.02
2018-08-11T06:11:49.478Z,15.12
2018-08-11T06:12:58.114Z,15.07
2018-08-11T06:14:07.042Z,14.99
2018-08-11T06:15:15.675Z,15.1
2018-08-11T06:16:24.324Z,15.07
2018-08-11T06:17:33.225Z,15.14
2018-08-11T06:18:41.877Z,15.17
2018-08-11T06:19:50.516Z,15.22
2018-08-11T06:20:59.166Z,15.25
2018-08-11T06:22:08.106Z,15.18
2018-08-11T06:23:16.751Z,15.25
2018-08-11T06:24:25.411Z,15.26
2018-08-11T06:25:34.060Z,15.32
2018-08-11T06:26:42.704Z,15.35
2018-08-11T06:27:51.340Z,15.47
2018-08-11T06:28:59.988Z,15.47
2018-08-11T06:30:08.631Z,15.59
2018-08-11T06:31:17.375Z,15.57
2018-08-11T06:32:26.208Z,15.48
2018-08-11T06:33:35.118Z,15.55
2018-08-11T06:34:43.767Z,15.51
2018-08-11T06:35:52.673Z,15.55
2018-08-11T06:37:01.315Z,15.52
2018-08-11T06:38:09.963Z,15.51
2018-08-11T06:39:18.611Z,15.54
2018-08-11T06:40:27.595Z,15.6
2018-08-11T06:41:36.543Z,15.59
2018-08-11T06:42:45.195Z,15.65
2018-08-11T06:43:54.098Z,15.67
2018-08-11T06:45:02.736Z,15.66
2018-08-11T06:46:11.383Z,15.66
2018-08-11T06:47:20.025Z,15.62
2018-08-11T06:48:28.669Z,15.62
2018-08-11T06:49:37.307Z,15.65
2018-08-11T06:50:45.956Z,15.75
2018-08-11T06:51:54.607Z,15.72
2018-08-11T06:53:03.252Z,15.85
2018-08-11T06:54:11.892Z,15.92
2018-08-11T06:55:20.811Z,15.87
2018-08-11T06:56:29.452Z,15.87
2018-08-11T06:57:38.099Z,16.05
2018-08-11T06:58:46.740Z,16.12
2018-08-11T06:59:55.388Z,16.13
2018-08-11T07:01:04.033Z,16.24
2018-08-11T07:02:12.681Z,16.25
2018-08-11T07:03:21.590Z,16.31
2018-08-11T07:04:30.251Z,16.25
2018-08-11T07:05:38.874Z,16.32
2018-08-11T07:06:47.524Z,16.28
2018-08-11T07:07:56.178Z,16.26
2018-08-11T07:09:04.810Z,16.32
2018-08-11T07:10:13.458Z,16.37
2018-08-11T07:11:22.104Z,16.36
2018-08-11T07:12:31.537Z,16.34
2018-08-11T07:13:40.177Z,16.36
2018-08-11T07:14:48.825Z,16.34
2018-08-11T07:15:57.468Z,16.36
2018-08-11T07:17:06.117Z,16.37
2018-08-11T07:18:14.763Z,16.32
2018-08-11T07:19:23.405Z,16.39
2018-08-11T07:20:32.052Z,16.29
2018-08-11T07:21:40.984Z,16.31
2018-08-11T07:22:50.158Z,16.41
2018-08-11T07:23:58.799Z,16.46
2018-08-11T07:25:07.444Z,16.49
2018-08-11T07:26:16.087Z,16.61
2018-08-11T07:27:24.736Z,16.58
2018-08-11T07:28:33.660Z,16.62
2018-08-11T07:29:42.295Z,16.66
2018-08-11T07:30:50.931Z,16.61
2018-08-11T07:31:59.585Z,16.68
2018-08-11T07:33:08.229Z,16.73
2018-08-11T07:34:16.875Z,16.77
2018-08-11T07:35:25.777Z,16.73
2018-08-11T07:36:34.524Z,16.83
2018-08-11T07:37:43.455Z,16.8
2018-08-11T07:38:52.102Z,16.84
2018-08-11T07:40:00.749Z,16.89
2018-08-11T07:41:09.379Z,16.98
2018-08-11T07:42:18.028Z,17.02
2018-08-11T07:43:26.738Z,17.14
2018-08-11T07:44:35.323Z,17.17
2018-08-11T07:45:43.962Z,17.22
2018-08-11T07:46:52.616Z,17.28
2018-08-11T07:48:01.258Z,17.42
2018-08-11T07:49:09.912Z,17.39
2018-08-11T07:50:18.629Z,17.37
2018-08-11T07:51:27.197Z,17.35
2018-08-11T07:52:35.841Z,17.38
2018-08-11T07:53:44.497Z,17.3
2018-08-11T07:54:53.138Z,17.35
2018-08-11T07:56:01.915Z,17.41
2018-08-11T07:57:10.430Z,17.46
2018-08-11T07:58:19.072Z,17.47
2018-08-11T07:59:27.726Z,17.46
2018-08-11T08:00:36.368Z,17.59
2018-08-11T08:01:45.018Z,17.41
2018-08-11T08:02:53.654Z,17.46
2018-08-11T08:04:02.308Z,17.63
2018-08-11T08:05:10.947Z,17.68
2018-08-11T08:06:19.597Z,17.8
2018-08-11T08:07:28.497Z,17.9
2018-08-11T08:08:37.151Z,18
2018-08-11T08:09:45.796Z,17.94
2018-08-11T08:10:54.446Z,17.98
2018-08-11T08:12:03.090Z,18
2018-08-11T08:13:12.267Z,17.97
2018-08-11T08:14:21.184Z,18.08
2018-08-11T08:15:29.835Z,18.06
2018-08-11T08:16:38.744Z,18.05
2018-08-11T08:17:47.382Z,18.12
2018-08-11T08:18:56.030Z,18.21
2018-08-11T08:20:04.669Z,18.34
2018-08-11T08:21:13.588Z,18.52
2018-08-11T08:22:22.751Z,18.53
2018-08-11T08:23:31.402Z,18.63
2018-08-11T08:24:40.043Z,18.81
2018-08-11T08:25:48.696Z,18.88
2018-08-11T08:26:57.378Z,18.92
2018-08-11T08:28:06.638Z,18.98
2018-08-11T08:29:15.281Z,18.74
2018-08-11T08:30:23.931Z,18.68
2018-08-11T08:31:32.575Z,18.68
2018-08-11T08:32:41.222Z,18.7
2018-08-11T08:33:49.915Z,18.73
2018-08-11T08:34:58.510Z,18.85
2018-08-11T08:36:07.167Z,18.74
2018-08-11T08:37:15.814Z,18.76
2018-08-11T08:38:24.461Z,18.63
2018-08-11T08:39:33.103Z,18.63
2018-08-11T08:40:41.752Z,18.71
2018-08-11T08:41:50.681Z,18.74
2018-08-11T08:42:59.594Z,18.71
2018-08-11T08:44:08.238Z,18.68
2018-08-11T08:45:17.152Z,18.64
2018-08-11T08:46:25.798Z,18.66
2018-08-11T08:47:34.951Z,18.7
2018-08-11T08:48:43.503Z,18.61
2018-08-11T08:49:52.150Z,18.51
2018-08-11T08:51:00.795Z,18.61
2018-08-11T08:52:09.442Z,18.7
2018-08-11T08:53:18.439Z,18.51
2018-08-11T08:54:27.033Z,18.55
2018-08-11T08:55:35.679Z,18.55
2018-08-11T08:56:44.327Z,18.49
2018-08-11T08:57:52.981Z,18.36
2018-08-11T08:59:01.666Z,18.24
2018-08-11T09:00:10.269Z,18.16
2018-08-11T09:01:18.909Z,18.11
2018-08-11T09:02:27.563Z,18.08
2018-08-11T09:03:36.469Z,18.12
2018-08-11T09:04:45.123Z,18.03
2018-08-11T09:05:53.761Z,18.08
2018-08-11T09:07:02.411Z,18.15
2018-08-11T09:08:11.056Z,18.08
2018-08-11T09:09:19.703Z,18.11
2018-08-11T09:10:28.610Z,18.24
2018-08-11T09:11:37.251Z,18.28
2018-08-11T09:12:45.905Z,18.48
2018-08-11T09:13:54.549Z,18.53
2018-08-11T09:15:03.195Z,18.63
2018-08-11T09:16:11.837Z,18.7
2018-08-11T09:17:20.488Z,18.76
2018-08-11T09:18:29.138Z,18.86
2018-08-11T09:19:37.784Z,18.73
2018-08-11T09:20:46.425Z,18.79
2018-08-11T09:21:55.076Z,18.92
2018-08-11T09:23:03.723Z,18.98
2018-08-11T09:24:12.371Z,18.94
2018-08-11T09:25:21.017Z,19.19
2018-08-11T09:26:29.990Z,19.23
2018-08-11T09:27:38.635Z,19.37
2018-08-11T09:28:47.280Z,19.57
2018-08-11T09:29:55.920Z,19.72
2018-08-11T09:31:04.571Z,19.78
2018-08-11T09:32:13.216Z,19.84
2018-08-11T09:33:21.863Z,19.85
2018-08-11T09:34:30.505Z,19.63
2018-08-11T09:35:39.157Z,19.62
2018-08-11T09:36:47.804Z,19.53
2018-08-11T09:37:56.979Z,19.3
2018-08-11T09:39:05.885Z,19.29
2018-08-11T09:40:14.536Z,19.26
2018-08-11T09:41:23.179Z,19.15
2018-08-11T09:42:31.830Z,19.08
2018-08-11T09:43:40.474Z,19.08
2018-08-11T09:44:49.130Z,19.04
2018-08-11T09:45:58.117Z,19.04
2018-08-11T09:47:06.707Z,19.07
2018-08-11T09:48:15.356Z,19.2
2018-08-11T09:49:24.003Z,19.29
2018-08-11T09:50:32.912Z,19.38
2018-08-11T09:51:41.564Z,19.48
2018-08-11T09:52:50.477Z,19.74
2018-08-11T09:53:59.117Z,19.79
2018-08-11T09:55:07.769Z,19.72
2018-08-11T09:56:16.416Z,19.87
2018-08-11T09:57:25.061Z,19.85
2018-08-11T09:58:33.770Z,19.92
2018-08-11T09:59:42.686Z,19.93
2018-08-11T10:00:51.592Z,19.97
2018-08-11T10:02:00.514Z,19.94
2018-08-11T10:03:09.155Z,19.92
2018-08-11T10:04:17.802Z,19.74
2018-08-11T10:05:26.446Z,19.71
2018-08-11T10:06:35.090Z,19.56
2018-08-11T10:07:43.742Z,19.41
2018-08-11T10:08:52.388Z,19.3
2018-08-11T10:10:01.036Z,19.35
2018-08-11T10:11:09.679Z,19.41
2018-08-11T10:12:18.336Z,19.48
2018-08-11T10:13:26.975Z,19.49
2018-08-11T10:14:35.624Z,19.64
2018-08-11T10:15:44.268Z,19.89
2018-08-11T10:16:52.923Z,20.02
2018-08-11T10:18:01.835Z,20.11
2018-08-11T10:19:10.486Z,20.18
2018-08-11T10:20:19.129Z,20.15
2018-08-11T10:21:27.773Z,20.21
2018-08-11T10:22:36.421Z,20.1
2018-08-11T10:23:45.075Z,20.1
2018-08-11T10:24:53.985Z,19.93
2018-08-11T10:26:02.632Z,19.89
2018-08-11T10:27:11.283Z,20.02
2018-08-11T10:28:20.196Z,20.02
2018-08-11T10:29:28.851Z,20.15
2018-08-11T10:30:37.753Z,20.24
2018-08-11T10:31:46.410Z,20.36
2018-08-11T10:32:55.048Z,20.52
2018-08-11T10:34:03.706Z,20.71
2018-08-11T10:35:12.345Z,20.8
2018-08-11T10:36:20.995Z,20.9
2018-08-11T10:37:29.640Z,20.92
2018-08-11T10:38:38.301Z,20.78
2018-08-11T10:39:46.957Z,20.7
2018-08-11T10:40:55.593Z,20.64
2018-08-11T10:42:04.237Z,20.55
2018-08-11T10:43:12.885Z,20.52
2018-08-11T10:44:21.542Z,20.33
2018-08-11T10:45:30.447Z,20.24
2018-08-11T10:46:39.097Z,20.07
2018-08-11T10:47:47.740Z,20.04
2018-08-11T10:48:56.397Z,20.14
2018-08-11T10:50:05.039Z,20.1
2018-08-11T10:51:13.957Z,20.08
2018-08-11T10:52:22.592Z,20.18
2018-08-11T10:53:31.248Z,20.18
2018-08-11T10:54:39.900Z,20.12
2018-08-11T10:55:48.551Z,20.15
2018-08-11T10:56:57.187Z,20.07
2018-08-11T10:58:05.840Z,20.08
2018-08-11T10:59:14.493Z,20.24
2018-08-11T11:00:23.149Z,20.15
2018-08-11T11:01:31.801Z,20.19
2018-08-11T11:02:40.446Z,20.12
2018-08-11T11:03:49.088Z,20.1
2018-08-11T11:04:57.731Z,20.1
2018-08-11T11:06:06.394Z,20.1
2018-08-11T11:07:15.033Z,20.19
2018-08-11T11:08:24.033Z,20.39
2018-08-11T11:09:33.022Z,20.5
2018-08-11T11:10:41.685Z,20.6
2018-08-11T11:11:50.320Z,20.77
2018-08-11T11:12:58.969Z,20.88
2018-08-11T11:14:07.653Z,20.88
2018-08-11T11:15:16.272Z,20.9
2018-08-11T11:16:25.183Z,20.9
2018-08-11T11:17:33.828Z,21.08
2018-08-11T11:18:42.472Z,21.15
2018-08-11T11:19:51.119Z,21.26
2018-08-11T11:20:59.776Z,21.26
2018-08-11T11:22:08.684Z,21.28
2018-08-11T11:23:17.337Z,21.25
2018-08-11T11:24:26.510Z,21.19
2018-08-11T11:25:35.167Z,21.1
2018-08-11T11:26:43.817Z,21.07
2018-08-11T11:27:52.468Z,21.01
2018-08-11T11:29:01.124Z,20.95
2018-08-11T11:30:09.766Z,20.96
2018-08-11T11:31:18.417Z,20.9
2018-08-11T11:32:27.064Z,20.92
2018-08-11T11:33:35.720Z,20.9
2018-08-11T11:34:44.628Z,20.78
2018-08-11T11:35:53.277Z,20.88
2018-08-11T11:37:01.926Z,20.95
2018-08-11T11:38:10.573Z,21.19
2018-08-11T11:39:19.226Z,21.4
2018-08-11T11:40:27.871Z,21.56
2018-08-11T11:41:36.518Z,21.69
2018-08-11T11:42:45.162Z,21.91
2018-08-11T11:43:53.816Z,21.89
2018-08-11T11:45:02.730Z,21.88
2018-08-11T11:46:11.641Z,21.96
2018-08-11T11:47:20.289Z,21.97
2018-08-11T11:48:29.204Z,22.01
2018-08-11T11:49:37.847Z,22
2018-08-11T11:50:46.499Z,22.03
2018-08-11T11:51:55.142Z,21.99
2018-08-11T11:53:03.794Z,21.78
2018-08-11T11:54:12.443Z,21.72
2018-08-11T11:55:21.094Z,21.68
2018-08-11T11:56:29.746Z,21.65
2018-08-11T11:57:38.392Z,21.56
2018-08-11T11:58:47.305Z,21.56
2018-08-11T11:59:55.980Z,21.41
2018-08-11T12:01:04.610Z,21.37
2018-08-11T12:02:13.567Z,21.59
2018-08-11T12:03:22.213Z,21.53
2018-08-11T12:04:30.870Z,21.56
2018-08-11T12:05:39.565Z,21.75
2018-08-11T12:06:48.165Z,21.81
2018-08-11T12:07:56.816Z,21.91
2018-08-11T12:09:05.463Z,22.01
2018-08-11T12:10:14.118Z,21.99
2018-08-11T12:11:22.763Z,22.01
2018-08-11T12:12:31.411Z,22.01
2018-08-11T12:13:40.061Z,21.97
2018-08-11T12:14:48.970Z,21.89
2018-08-11T12:15:57.624Z,21.91
2018-08-11T12:17:06.272Z,21.81
2018-08-11T12:18:14.920Z,21.88
2018-08-11T12:19:23.573Z,21.83
2018-08-11T12:20:32.220Z,21.83
2018-08-11T12:21:40.869Z,21.78
2018-08-11T12:22:49.519Z,21.72
2018-08-11T12:23:58.428Z,21.75
2018-08-11T12:25:07.087Z,21.75
2018-08-11T12:26:15.733Z,21.84
2018-08-11T12:27:24.404Z,21.85
2018-08-11T12:28:33.028Z,21.85
2018-08-11T12:29:41.679Z,22
2018-08-11T12:30:50.332Z,21.97
2018-08-11T12:31:59.247Z,21.99
2018-08-11T12:33:08.164Z,22.07
2018-08-11T12:34:16.802Z,21.97
2018-08-11T12:35:25.721Z,22.14
2018-08-11T12:36:34.897Z,22.06
2018-08-11T12:37:43.556Z,22.06
2018-08-11T12:38:52.201Z,22.08
2018-08-11T12:40:00.848Z,22.19
2018-08-11T12:41:09.489Z,22.33
2018-08-11T12:42:18.146Z,22.37
2018-08-11T12:43:26.792Z,22.43
2018-08-11T12:44:35.441Z,22.47
2018-08-11T12:45:44.089Z,22.55
2018-08-11T12:46:52.746Z,22.71
2018-08-11T12:48:01.657Z,22.71
2018-08-11T12:49:10.302Z,22.84
2018-08-11T12:50:18.945Z,22.91
2018-08-11T12:51:27.591Z,22.96
2018-08-11T12:52:36.258Z,23.14
2018-08-11T12:53:45.169Z,23.16
2018-08-11T12:54:53.828Z,23.17
2018-08-11T12:56:02.467Z,23.17
2018-08-11T12:57:11.126Z,23.18
2018-08-11T12:58:19.768Z,23.17
2018-08-11T12:59:28.420Z,23.08
2018-08-11T13:00:37.061Z,23.11
2018-08-11T13:01:45.722Z,23.18
2018-08-11T13:02:54.371Z,23.14
2018-08-11T13:04:03.024Z,23.18
2018-08-11T13:05:11.663Z,23.13
2018-08-11T13:06:20.583Z,23.2
2018-08-11T13:07:29.236Z,23.17
2018-08-11T13:08:37.887Z,23.28
2018-08-11T13:09:46.541Z,23.34
2018-08-11T13:10:55.181Z,23.47
2018-08-11T13:12:03.836Z,23.51
2018-08-11T13:13:12.490Z,23.67
2018-08-11T13:14:21.149Z,23.7
2018-08-11T13:15:29.792Z,23.67
2018-08-11T13:16:38.717Z,23.71
2018-08-11T13:17:47.362Z,23.64
2018-08-11T13:18:56.020Z,23.58
2018-08-11T13:20:04.661Z,23.55
2018-08-11T13:21:13.315Z,23.62
2018-08-11T13:22:21.970Z,23.62
2018-08-11T13:23:30.611Z,23.64
2018-08-11T13:24:39.522Z,23.51
2018-08-11T13:25:48.447Z,23.47
2018-08-11T13:26:57.103Z,23.34
2018-08-11T13:28:05.749Z,23.28
2018-08-11T13:29:14.652Z,23.06
2018-08-11T13:30:23.311Z,23.14
2018-08-11T13:31:31.955Z,23.16
2018-08-11T13:32:40.616Z,23.26
2018-08-11T13:33:49.262Z,23.26
2018-08-11T13:34:57.916Z,23.28
2018-08-11T13:36:06.566Z,23.36
2018-08-11T13:37:15.225Z,23.32
2018-08-11T13:38:24.127Z,23.26
2018-08-11T13:39:32.782Z,23.17
2018-08-11T13:40:41.694Z,23.13
2018-08-11T13:41:50.351Z,23.29
2018-08-11T13:42:58.997Z,23.23
2018-08-11T13:44:07.642Z,23.14
2018-08-11T13:45:16.293Z,23.04
2018-08-11T13:46:24.941Z,23.06
2018-08-11T13:47:33.597Z,22.98
2018-08-11T13:48:42.243Z,22.89
2018-08-11T13:49:50.939Z,23.01
2018-08-11T13:50:59.542Z,23.13
2018-08-11T13:52:08.466Z,23.16
2018-08-11T13:53:17.371Z,23.16
2018-08-11T13:54:26.097Z,23.16
2018-08-11T13:55:34.664Z,23.29
2018-08-11T13:56:43.322Z,23.42
2018-08-11T13:57:51.969Z,23.45
2018-08-11T13:59:00.620Z,23.4
2018-08-11T14:00:09.260Z,23.55
2018-08-11T14:01:18.212Z,23.66
2018-08-11T14:02:26.835Z,23.67
2018-08-11T14:03:35.489Z,23.62
2018-08-11T14:04:44.411Z,23.47
2018-08-11T14:05:53.050Z,23.32
2018-08-11T14:07:01.711Z,23.42
2018-08-11T14:08:10.356Z,23.21
2018-08-11T14:09:19.283Z,23.29
2018-08-11T14:10:27.923Z,23.36
2018-08-11T14:11:36.579Z,23.4
2018-08-11T14:12:45.227Z,23.54
2018-08-11T14:13:53.887Z,23.59
2018-08-11T14:15:02.572Z,23.66
2018-08-11T14:16:11.448Z,23.59
2018-08-11T14:17:20.098Z,23.62
2018-08-11T14:18:28.760Z,23.54
2018-08-11T14:19:37.407Z,23.56
2018-08-11T14:20:46.052Z,23.64
2018-08-11T14:21:54.704Z,23.58
2018-08-11T14:23:03.356Z,23.56
2018-08-11T14:24:12.271Z,23.55
2018-08-11T14:25:20.925Z,23.49
2018-08-11T14:26:29.577Z,23.33
2018-08-11T14:27:38.224Z,23.36
2018-08-11T14:28:46.880Z,23.2
2018-08-11T14:29:55.530Z,23.08
2018-08-11T14:31:04.183Z,22.95
2018-08-11T14:32:12.828Z,22.83
2018-08-11T14:33:21.482Z,22.73
2018-08-11T14:34:30.176Z,22.77
2018-08-11T14:35:39.338Z,22.81
2018-08-11T14:36:47.981Z,22.89
2018-08-11T14:37:56.634Z,22.95
2018-08-11T14:39:05.286Z,23.1
2018-08-11T14:40:13.955Z,23.28
2018-08-11T14:41:22.593Z,23.36
2018-08-11T14:42:31.241Z,23.48
2018-08-11T14:43:40.155Z,23.49
2018-08-11T14:44:48.805Z,23.48
2018-08-11T14:45:57.465Z,23.47
2018-08-11T14:47:06.110Z,23.48
2018-08-11T14:48:14.760Z,23.44